sensor_id;sensor_type;location;lat;lon;timestamp;temperature;humidity
3794;DHT22;1912;51.358;12.282;2023-03-12T04:46:31;-2.90;1.00
3794;DHT22;1912;51.358;12.282;2023-03-12T04:48:56;-2.90;1.00
3794;DHT22;1912;51.358;12.282;2023-03-12T04:51:23;-2.90;1.00
3794;DHT22;1912;51.358;12.282;2023-03-12T04:53:48;-2.90;1.00
3794;DHT22;1912;51.358;12.282;2023-03-12T04:56:14;-2.90;1.00
3794;DHT22;1912;51.358;12.282;2023-03-12T04:58:40;-2.80;1.00
3794;DHT22;1912;51.358;12.282;2023-03-12T05:01:06;-2.80;1.00
3794;DHT22;1912;51.358;12.282;2023-03-12T05:03:32;-2.80;1.00
3794;DHT22;1912;51.358;12.282;2023-03-12T05:05:57;-2.90;1.00
3794;DHT22;1912;51.358;12.282;2023-03-12T05:08:23;-2.90;1.00
3794;DHT22;1912;51.358;12.282;2023-03-12T05:10:49;-2.90;1.00
3794;DHT22;1912;51.358;12.282;2023-03-12T05:13:16;-2.90;1.00
3794;DHT22;1912;51.358;12.282;2023-03-12T05:15:44;-2.90;1.00
3794;DHT22;1912;51.358;12.282;2023-03-12T05:18:11;-2.90;1.00
3794;DHT22;1912;51.358;12.282;2023-03-12T05:20:37;-3.00;1.00
3794;DHT22;1912;51.358;12.282;2023-03-12T05:23:03;-3.00;1.00
3794;DHT22;1912;51.358;12.282;2023-03-12T05:25:28;-3.00;1.00
3794;DHT22;1912;51.358;12.282;2023-03-12T05:27:54;-3.00;1.00
3794;DHT22;1912;51.358;12.282;2023-03-12T05:30:20;-3.00;1.00
3794;DHT22;1912;51.358;12.282;2023-03-12T05:32:46;-3.00;1.00
3794;DHT22;1912;51.358;12.282;2023-03-12T05:35:12;-3.00;1.00
3794;DHT22;1912;51.358;12.282;2023-03-12T05:37:37;-2.90;1.00
3794;DHT22;1912;51.358;12.282;2023-03-12T05:40:04;-2.90;1.00
3794;DHT22;1912;51.358;12.282;2023-03-12T05:42:31;-2.90;1.00
3794;DHT22;1912;51.358;12.282;2023-03-12T05:44:57;-2.90;1.00
3794;DHT22;1912;51.358;12.282;2023-03-12T05:47:23;-2.90;1.00
3794;DHT22;1912;51.358;12.282;2023-03-12T05:49:49;-2.90;1.00
3794;DHT22;1912;51.358;12.282;2023-03-12T05:52:14;-2.90;1.00
3794;DHT22;1912;51.358;12.282;2023-03-12T05:54:40;-2.90;1.00
3794;DHT22;1912;51.358;12.282;2023-03-12T05:57:06;-2.90;1.00
3794;DHT22;1912;51.358;12.282;2023-03-12T05:59:32;-2.90;1.00
3794;DHT22;1912;51.358;12.282;2023-03-12T06:01:58;-2.90;1.00
3794;DHT22;1912;51.358;12.282;2023-03-12T06:04:24;-2.90;1.00
3794;DHT22;1912;51.358;12.282;2023-03-12T06:06:50;-2.90;1.00
3794;DHT22;1912;51.358;12.282;2023-03-12T06:09:16;-2.90;1.00
3794;DHT22;1912;51.358;12.282;2023-03-12T06:11:41;-2.90;1.00
3794;DHT22;1912;51.358;12.282;2023-03-12T06:14:08;-2.80;1.00
3794;DHT22;1912;51.358;12.282;2023-03-12T06:16:33;-2.80;1.00
3794;DHT22;1912;51.358;12.282;2023-03-12T06:19:01;-2.80;1.00
3794;DHT22;1912;51.358;12.282;2023-03-12T06:21:33;-2.80;1.00
3794;DHT22;1912;51.358;12.282;2023-03-12T06:24:00;-2.80;1.00
3794;DHT22;1912;51.358;12.282;2023-03-12T06:26:27;-2.70;1.00
3794;DHT22;1912;51.358;12.282;2023-03-12T06:28:53;-2.60;1.00
3794;DHT22;1912;51.358;12.282;2023-03-12T06:31:19;-2.50;1.00
3794;DHT22;1912;51.358;12.282;2023-03-12T06:33:46;-2.30;1.00
3794;DHT22;1912;51.358;12.282;2023-03-12T06:36:12;-2.10;1.00
3794;DHT22;1912;51.358;12.282;2023-03-12T06:38:38;-1.80;1.00
3794;DHT22;1912;51.358;12.282;2023-03-12T06:41:07;-1.50;1.00
3794;DHT22;1912;51.358;12.282;2023-03-12T06:43:38;-1.40;1.00
3794;DHT22;1912;51.358;12.282;2023-03-12T06:46:06;-1.20;1.00
3794;DHT22;1912;51.358;12.282;2023-03-12T06:48:34;-1.20;1.00
3794;DHT22;1912;51.358;12.282;2023-03-12T06:51:05;-1.10;1.00
3794;DHT22;1912;51.358;12.282;2023-03-12T06:53:31;-1.00;1.00
3794;DHT22;1912;51.358;12.282;2023-03-12T06:55:57;-0.90;1.00
3794;DHT22;1912;51.358;12.282;2023-03-12T06:58:27;-0.70;1.00
3794;DHT22;1912;51.358;12.282;2023-03-12T07:00:55;-0.50;1.00
3794;DHT22;1912;51.358;12.282;2023-03-12T07:03:24;-0.20;1.00
3794;DHT22;1912;51.358;12.282;2023-03-12T07:05:50;-0.10;1.00
3794;DHT22;1912;51.358;12.282;2023-03-12T07:08:16;0.00;1.00
3794;DHT22;1912;51.358;12.282;2023-03-12T07:10:43;0.10;1.00
3794;DHT22;1912;51.358;12.282;2023-03-12T07:13:10;0.30;1.00
3794;DHT22;1912;51.358;12.282;2023-03-12T07:15:36;0.50;1.00
3794;DHT22;1912;51.358;12.282;2023-03-12T07:18:09;0.60;1.00
3794;DHT22;1912;51.358;12.282;2023-03-12T07:20:37;0.80;1.00
3794;DHT22;1912;51.358;12.282;2023-03-12T07:23:04;1.10;1.00
3794;DHT22;1912;51.358;12.282;2023-03-12T07:25:30;1.30;1.00
3794;DHT22;1912;51.358;12.282;2023-03-12T07:28:00;1.40;1.00
3794;DHT22;1912;51.358;12.282;2023-03-12T07:30:26;1.50;1.00
3794;DHT22;1912;51.358;12.282;2023-03-12T07:32:51;1.60;1.00
3794;DHT22;1912;51.358;12.282;2023-03-12T07:35:17;1.80;1.00
3794;DHT22;1912;51.358;12.282;2023-03-12T07:37:43;2.10;1.00
3794;DHT22;1912;51.358;12.282;2023-03-12T07:40:09;2.40;1.00
3794;DHT22;1912;51.358;12.282;2023-03-12T07:42:35;2.50;1.00
3794;DHT22;1912;51.358;12.282;2023-03-12T07:45:00;2.60;1.00
3794;DHT22;1912;51.358;12.282;2023-03-12T07:47:26;2.60;1.00
3794;DHT22;1912;51.358;12.282;2023-03-12T07:49:52;2.50;1.00
3794;DHT22;1912;51.358;12.282;2023-03-12T07:52:18;2.60;1.00
3794;DHT22;1912;51.358;12.282;2023-03-12T07:54:44;2.70;1.00
3794;DHT22;1912;51.358;12.282;2023-03-12T07:57:10;2.70;1.00
3794;DHT22;1912;51.358;12.282;2023-03-12T07:59:37;2.70;1.00
3794;DHT22;1912;51.358;12.282;2023-03-12T08:02:03;3.10;1.00
3794;DHT22;1912;51.358;12.282;2023-03-12T08:04:28;3.30;1.00
3794;DHT22;1912;51.358;12.282;2023-03-12T08:06:54;3.20;1.00
3794;DHT22;1912;51.358;12.282;2023-03-12T08:09:19;3.10;1.00
3794;DHT22;1912;51.358;12.282;2023-03-12T08:11:45;3.20;1.00
3794;DHT22;1912;51.358;12.282;2023-03-12T08:14:11;3.50;1.00
3794;DHT22;1912;51.358;12.282;2023-03-12T08:16:37;3.50;1.00
3794;DHT22;1912;51.358;12.282;2023-03-12T08:19:02;3.50;1.00
3794;DHT22;1912;51.358;12.282;2023-03-12T08:21:28;3.30;1.00
3794;DHT22;1912;51.358;12.282;2023-03-12T08:23:53;3.20;1.00
3794;DHT22;1912;51.358;12.282;2023-03-12T08:26:19;3.30;1.00
3794;DHT22;1912;51.358;12.282;2023-03-12T08:28:45;3.50;1.00
3794;DHT22;1912;51.358;12.282;2023-03-12T08:31:11;3.70;1.00
3794;DHT22;1912;51.358;12.282;2023-03-12T08:33:36;3.60;1.00
3794;DHT22;1912;51.358;12.282;2023-03-12T08:36:05;3.60;1.00
3794;DHT22;1912;51.358;12.282;2023-03-12T08:38:31;3.70;1.00
3794;DHT22;1912;51.358;12.282;2023-03-12T08:40:58;3.80;1.00
3794;DHT22;1912;51.358;12.282;2023-03-12T08:43:24;4.10;1.00
3794;DHT22;1912;51.358;12.282;2023-03-12T08:45:55;4.30;1.00
3794;DHT22;1912;51.358;12.282;2023-03-12T08:48:22;4.60;1.00
3794;DHT22;1912;51.358;12.282;2023-03-12T08:50:48;4.30;1.00
3794;DHT22;1912;51.358;12.282;2023-03-12T08:53:14;4.20;1.00
3794;DHT22;1912;51.358;12.282;2023-03-12T08:55:39;4.30;1.00
3794;DHT22;1912;51.358;12.282;2023-03-12T08:58:05;4.10;1.00
3794;DHT22;1912;51.358;12.282;2023-03-12T09:00:31;4.10;1.00
3794;DHT22;1912;51.358;12.282;2023-03-12T09:02:56;4.10;1.00
3794;DHT22;1912;51.358;12.282;2023-03-12T09:05:23;4.10;1.00
3794;DHT22;1912;51.358;12.282;2023-03-12T09:07:49;4.10;1.00
3794;DHT22;1912;51.358;12.282;2023-03-12T09:10:16;4.00;1.00
3794;DHT22;1912;51.358;12.282;2023-03-12T09:12:41;4.00;1.00
3794;DHT22;1912;51.358;12.282;2023-03-12T09:15:09;4.10;1.00
3794;DHT22;1912;51.358;12.282;2023-03-12T09:17:35;4.10;1.00
3794;DHT22;1912;51.358;12.282;2023-03-12T09:20:02;4.20;1.00
3794;DHT22;1912;51.358;12.282;2023-03-12T09:22:32;4.30;1.00
3794;DHT22;1912;51.358;12.282;2023-03-12T09:24:57;4.20;1.00
3794;DHT22;1912;51.358;12.282;2023-03-12T09:27:23;4.10;1.00
3794;DHT22;1912;51.358;12.282;2023-03-12T09:29:49;4.10;1.00
3794;DHT22;1912;51.358;12.282;2023-03-12T09:32:16;3.90;1.00
3794;DHT22;1912;51.358;12.282;2023-03-12T09:34:41;3.90;1.00
3794;DHT22;1912;51.358;12.282;2023-03-12T09:37:07;4.00;1.00
3794;DHT22;1912;51.358;12.282;2023-03-12T09:39:32;4.20;1.00
3794;DHT22;1912;51.358;12.282;2023-03-12T09:41:58;4.40;1.00
3794;DHT22;1912;51.358;12.282;2023-03-12T09:44:41;4.50;1.00
3794;DHT22;1912;51.358;12.282;2023-03-12T09:47:25;4.60;1.00
3794;DHT22;1912;51.358;12.282;2023-03-12T09:50:03;4.50;1.00
3794;DHT22;1912;51.358;12.282;2023-03-12T09:52:48;4.70;1.00
3794;DHT22;1912;51.358;12.282;2023-03-12T09:55:19;4.90;1.00
3794;DHT22;1912;51.358;12.282;2023-03-12T09:57:47;4.90;1.00
3794;DHT22;1912;51.358;12.282;2023-03-12T10:00:19;4.60;1.00
3794;DHT22;1912;51.358;12.282;2023-03-12T10:03:07;4.70;1.00
3794;DHT22;1912;51.358;12.282;2023-03-12T10:06:08;5.00;1.00
3794;DHT22;1912;51.358;12.282;2023-03-12T10:11:41;5.10;1.00
3794;DHT22;1912;51.358;12.282;2023-03-12T10:20:52;5.10;1.00
3794;DHT22;1912;51.358;12.282;2023-03-12T10:26:38;5.00;1.00
3794;DHT22;1912;51.358;12.282;2023-03-12T10:29:20;5.00;1.00
3794;DHT22;1912;51.358;12.282;2023-03-12T10:32:03;4.80;1.00
3794;DHT22;1912;51.358;12.282;2023-03-12T10:34:39;4.90;1.00
3794;DHT22;1912;51.358;12.282;2023-03-12T10:37:20;5.10;1.00
3794;DHT22;1912;51.358;12.282;2023-03-12T10:39:47;5.20;1.00
3794;DHT22;1912;51.358;12.282;2023-03-12T10:42:20;5.60;1.00
3794;DHT22;1912;51.358;12.282;2023-03-12T10:44:56;5.70;1.00
3794;DHT22;1912;51.358;12.282;2023-03-12T10:47:33;5.70;1.00
3794;DHT22;1912;51.358;12.282;2023-03-12T10:50:22;5.60;1.00
3794;DHT22;1912;51.358;12.282;2023-03-12T10:52:52;5.90;1.00
3794;DHT22;1912;51.358;12.282;2023-03-12T10:55:37;5.90;1.00
3794;DHT22;1912;51.358;12.282;2023-03-12T10:58:04;6.00;1.00
3794;DHT22;1912;51.358;12.282;2023-03-12T11:00:30;6.00;1.00
3794;DHT22;1912;51.358;12.282;2023-03-12T11:03:02;6.00;1.00
3794;DHT22;1912;51.358;12.282;2023-03-12T11:05:36;5.90;1.00
3794;DHT22;1912;51.358;12.282;2023-03-12T11:10:56;6.00;1.00
3794;DHT22;1912;51.358;12.282;2023-03-12T11:13:39;6.10;1.00
3794;DHT22;1912;51.358;12.282;2023-03-12T11:19:04;6.10;1.00
3794;DHT22;1912;51.358;12.282;2023-03-12T11:21:32;6.30;1.00
3794;DHT22;1912;51.358;12.282;2023-03-12T11:24:09;6.60;1.00
3794;DHT22;1912;51.358;12.282;2023-03-12T11:26:50;6.50;1.00
3794;DHT22;1912;51.358;12.282;2023-03-12T11:29:28;6.60;1.00
3794;DHT22;1912;51.358;12.282;2023-03-12T11:31:57;6.20;1.00
3794;DHT22;1912;51.358;12.282;2023-03-12T11:34:33;6.50;1.00
3794;DHT22;1912;51.358;12.282;2023-03-12T12:00:27;6.50;1.00
3794;DHT22;1912;51.358;12.282;2023-03-12T12:07:28;6.30;1.00
3794;DHT22;1912;51.358;12.282;2023-03-12T12:12:36;6.50;1.00
3794;DHT22;1912;51.358;12.282;2023-03-12T12:15:34;6.40;1.00
3794;DHT22;1912;51.358;12.282;2023-03-12T12:21:43;6.10;1.00
3794;DHT22;1912;51.358;12.282;2023-03-12T12:35:41;5.90;1.00
3794;DHT22;1912;51.358;12.282;2023-03-12T12:38:28;5.90;1.00
3794;DHT22;1912;51.358;12.282;2023-03-12T12:41:19;5.90;1.00
3794;DHT22;1912;51.358;12.282;2023-03-12T12:43:49;5.90;1.00
3794;DHT22;1912;51.358;12.282;2023-03-12T12:46:41;5.90;1.00
3794;DHT22;1912;51.358;12.282;2023-03-12T12:49:13;5.70;1.00
3794;DHT22;1912;51.358;12.282;2023-03-12T12:51:48;5.80;1.00
3794;DHT22;1912;51.358;12.282;2023-03-12T12:57:31;5.80;1.00
3794;DHT22;1912;51.358;12.282;2023-03-12T13:00:22;5.70;1.00
3794;DHT22;1912;51.358;12.282;2023-03-12T13:02:58;5.80;1.00
3794;DHT22;1912;51.358;12.282;2023-03-12T13:08:03;6.00;1.00
3794;DHT22;1912;51.358;12.282;2023-03-12T13:12:59;6.20;1.00
3794;DHT22;1912;51.358;12.282;2023-03-12T13:20:35;5.80;1.00
3794;DHT22;1912;51.358;12.282;2023-03-12T13:23:53;5.70;1.00
3794;DHT22;1912;51.358;12.282;2023-03-12T13:26:44;5.30;1.00
3794;DHT22;1912;51.358;12.282;2023-03-12T13:32:00;4.60;1.00
3794;DHT22;1912;51.358;12.282;2023-03-12T13:36:55;4.40;1.00
3794;DHT22;1912;51.358;12.282;2023-03-12T13:39:32;4.50;1.00
3794;DHT22;1912;51.358;12.282;2023-03-12T13:42:00;4.50;1.00
3794;DHT22;1912;51.358;12.282;2023-03-12T13:44:46;4.50;1.00
3794;DHT22;1912;51.358;12.282;2023-03-12T13:47:36;4.60;1.00
3794;DHT22;1912;51.358;12.282;2023-03-12T13:50:13;4.60;1.00
3794;DHT22;1912;51.358;12.282;2023-03-12T13:52:47;4.80;1.00
3794;DHT22;1912;51.358;12.282;2023-03-12T13:55:34;4.80;1.00
3794;DHT22;1912;51.358;12.282;2023-03-12T14:00:53;5.00;1.00
3794;DHT22;1912;51.358;12.282;2023-03-12T14:03:40;5.00;1.00
3794;DHT22;1912;51.358;12.282;2023-03-12T14:06:11;5.20;1.00
3794;DHT22;1912;51.358;12.282;2023-03-12T14:12:00;5.10;1.00
3794;DHT22;1912;51.358;12.282;2023-03-12T14:17:25;5.10;1.00
3794;DHT22;1912;51.358;12.282;2023-03-12T14:20:00;5.00;1.00
3794;DHT22;1912;51.358;12.282;2023-03-12T14:22:32;5.00;1.00
3794;DHT22;1912;51.358;12.282;2023-03-12T14:25:12;5.00;1.00
3794;DHT22;1912;51.358;12.282;2023-03-12T14:27:44;5.00;1.00
3794;DHT22;1912;51.358;12.282;2023-03-12T14:30:16;5.00;1.00
3794;DHT22;1912;51.358;12.282;2023-03-12T14:32:45;4.90;1.00
3794;DHT22;1912;51.358;12.282;2023-03-12T14:35:22;5.00;1.00
3794;DHT22;1912;51.358;12.282;2023-03-12T14:38:15;5.00;1.00
3794;DHT22;1912;51.358;12.282;2023-03-12T14:43:31;5.00;1.00
3794;DHT22;1912;51.358;12.282;2023-03-12T14:46:01;5.00;1.00
3794;DHT22;1912;51.358;12.282;2023-03-12T14:48:34;5.00;1.00
3794;DHT22;1912;51.358;12.282;2023-03-12T14:51:02;4.90;1.00
3794;DHT22;1912;51.358;12.282;2023-03-12T14:53:32;4.90;1.00
3794;DHT22;1912;51.358;12.282;2023-03-12T14:56:05;5.00;1.00
3794;DHT22;1912;51.358;12.282;2023-03-12T14:58:42;5.00;1.00
3794;DHT22;1912;51.358;12.282;2023-03-12T15:01:13;5.00;1.00
3794;DHT22;1912;51.358;12.282;2023-03-12T15:03:44;5.00;1.00
3794;DHT22;1912;51.358;12.282;2023-03-12T15:06:36;5.00;1.00
3794;DHT22;1912;51.358;12.282;2023-03-12T15:09:05;5.00;1.00
3794;DHT22;1912;51.358;12.282;2023-03-12T15:11:34;5.00;1.00
3794;DHT22;1912;51.358;12.282;2023-03-12T15:14:07;5.10;1.00
3794;DHT22;1912;51.358;12.282;2023-03-12T15:16:39;5.10;1.00
3794;DHT22;1912;51.358;12.282;2023-03-12T15:19:12;5.10;1.00
3794;DHT22;1912;51.358;12.282;2023-03-12T15:21:38;5.10;1.00
3794;DHT22;1912;51.358;12.282;2023-03-12T15:24:05;5.20;1.00
3794;DHT22;1912;51.358;12.282;2023-03-12T15:26:33;5.30;1.00
3794;DHT22;1912;51.358;12.282;2023-03-12T15:29:39;5.30;1.00
3794;DHT22;1912;51.358;12.282;2023-03-12T15:32:12;5.30;1.00
3794;DHT22;1912;51.358;12.282;2023-03-12T15:34:38;5.30;1.00
3794;DHT22;1912;51.358;12.282;2023-03-12T15:40:01;5.30;1.00
3794;DHT22;1912;51.358;12.282;2023-03-12T15:42:39;5.30;1.00
3794;DHT22;1912;51.358;12.282;2023-03-12T15:45:19;5.30;1.00
3794;DHT22;1912;51.358;12.282;2023-03-12T15:47:46;5.30;1.00
3794;DHT22;1912;51.358;12.282;2023-03-12T15:50:26;5.30;1.00
3794;DHT22;1912;51.358;12.282;2023-03-12T15:53:04;5.30;1.00
3794;DHT22;1912;51.358;12.282;2023-03-12T15:55:36;5.30;1.00
3794;DHT22;1912;51.358;12.282;2023-03-12T15:58:24;5.30;1.00
3794;DHT22;1912;51.358;12.282;2023-03-12T16:01:17;5.30;1.00
3794;DHT22;1912;51.358;12.282;2023-03-12T16:03:48;5.30;1.00
3794;DHT22;1912;51.358;12.282;2023-03-12T16:06:16;5.30;1.00
3794;DHT22;1912;51.358;12.282;2023-03-12T16:08:50;5.40;1.00
3794;DHT22;1912;51.358;12.282;2023-03-12T16:11:21;5.30;1.00
3794;DHT22;1912;51.358;12.282;2023-03-12T16:13:48;5.40;1.00
3794;DHT22;1912;51.358;12.282;2023-03-12T16:16:15;5.40;1.00
3794;DHT22;1912;51.358;12.282;2023-03-12T16:18:42;5.40;1.00
3794;DHT22;1912;51.358;12.282;2023-03-12T16:21:08;5.40;1.00
3794;DHT22;1912;51.358;12.282;2023-03-12T16:23:35;5.40;1.00
3794;DHT22;1912;51.358;12.282;2023-03-12T16:26:03;5.40;1.00
3794;DHT22;1912;51.358;12.282;2023-03-12T16:28:29;5.40;1.00
3794;DHT22;1912;51.358;12.282;2023-03-12T16:30:55;5.40;1.00
3794;DHT22;1912;51.358;12.282;2023-03-12T16:33:22;5.40;1.00
3794;DHT22;1912;51.358;12.282;2023-03-12T16:35:49;5.40;1.00
3794;DHT22;1912;51.358;12.282;2023-03-12T16:38:15;5.40;1.00
3794;DHT22;1912;51.358;12.282;2023-03-12T16:40:49;5.40;1.00
3794;DHT22;1912;51.358;12.282;2023-03-12T16:43:23;5.40;1.00
3794;DHT22;1912;51.358;12.282;2023-03-12T16:45:52;5.50;1.00
3794;DHT22;1912;51.358;12.282;2023-03-12T16:48:20;5.40;1.00
3794;DHT22;1912;51.358;12.282;2023-03-12T16:50:56;5.50;1.00
3794;DHT22;1912;51.358;12.282;2023-03-12T16:53:22;5.50;1.00
3794;DHT22;1912;51.358;12.282;2023-03-12T16:55:52;5.50;1.00
3794;DHT22;1912;51.358;12.282;2023-03-12T16:58:27;5.50;1.00
3794;DHT22;1912;51.358;12.282;2023-03-12T17:00:53;5.60;1.00
3794;DHT22;1912;51.358;12.282;2023-03-12T17:03:40;5.60;1.00
3794;DHT22;1912;51.358;12.282;2023-03-12T17:06:14;5.60;1.00
3794;DHT22;1912;51.358;12.282;2023-03-12T17:08:41;5.60;1.00
3794;DHT22;1912;51.358;12.282;2023-03-12T17:11:16;5.60;1.00
3794;DHT22;1912;51.358;12.282;2023-03-12T17:13:51;5.70;1.00
3794;DHT22;1912;51.358;12.282;2023-03-12T17:16:18;5.70;1.00
3794;DHT22;1912;51.358;12.282;2023-03-12T17:18:44;5.70;1.00
3794;DHT22;1912;51.358;12.282;2023-03-12T17:21:12;5.70;1.00
3794;DHT22;1912;51.358;12.282;2023-03-12T17:23:39;5.70;1.00
3794;DHT22;1912;51.358;12.282;2023-03-12T17:26:06;5.70;1.00
3794;DHT22;1912;51.358;12.282;2023-03-12T17:28:32;5.80;1.00
3794;DHT22;1912;51.358;12.282;2023-03-12T17:30:57;5.80;1.00
3794;DHT22;1912;51.358;12.282;2023-03-12T17:33:23;5.80;1.00
3794;DHT22;1912;51.358;12.282;2023-03-12T17:36:01;5.80;1.00
3794;DHT22;1912;51.358;12.282;2023-03-12T17:38:29;5.90;1.00
3794;DHT22;1912;51.358;12.282;2023-03-12T17:40:55;5.90;1.00
3794;DHT22;1912;51.358;12.282;2023-03-12T17:43:21;5.80;1.00
3794;DHT22;1912;51.358;12.282;2023-03-12T17:45:47;5.90;1.00
3794;DHT22;1912;51.358;12.282;2023-03-12T17:48:13;5.90;1.00
3794;DHT22;1912;51.358;12.282;2023-03-12T17:50:38;5.90;1.00
3794;DHT22;1912;51.358;12.282;2023-03-12T17:53:04;5.90;1.00
3794;DHT22;1912;51.358;12.282;2023-03-12T17:55:30;5.90;1.00
3794;DHT22;1912;51.358;12.282;2023-03-12T17:57:56;5.90;1.00
3794;DHT22;1912;51.358;12.282;2023-03-12T18:00:21;5.80;1.00
3794;DHT22;1912;51.358;12.282;2023-03-12T18:02:48;5.80;1.00
3794;DHT22;1912;51.358;12.282;2023-03-12T18:05:14;5.80;1.00
3794;DHT22;1912;51.358;12.282;2023-03-12T18:07:39;5.80;1.00
3794;DHT22;1912;51.358;12.282;2023-03-12T18:10:07;5.80;1.00
3794;DHT22;1912;51.358;12.282;2023-03-12T18:12:35;5.90;1.00
3794;DHT22;1912;51.358;12.282;2023-03-12T18:15:03;5.90;1.00
3794;DHT22;1912;51.358;12.282;2023-03-12T18:17:29;5.90;1.00
3794;DHT22;1912;51.358;12.282;2023-03-12T18:19:55;5.90;1.00
3794;DHT22;1912;51.358;12.282;2023-03-12T18:22:20;5.90;1.00
3794;DHT22;1912;51.358;12.282;2023-03-12T18:24:47;5.90;1.00
3794;DHT22;1912;51.358;12.282;2023-03-12T18:27:13;5.90;1.00
3794;DHT22;1912;51.358;12.282;2023-03-12T18:29:38;5.90;1.00
3794;DHT22;1912;51.358;12.282;2023-03-12T18:32:06;6.00;1.00
3794;DHT22;1912;51.358;12.282;2023-03-12T18:34:32;6.00;1.00
3794;DHT22;1912;51.358;12.282;2023-03-12T18:36:57;6.00;1.00
3794;DHT22;1912;51.358;12.282;2023-03-12T18:39:23;6.00;1.00
3794;DHT22;1912;51.358;12.282;2023-03-12T18:41:49;6.00;1.00
3794;DHT22;1912;51.358;12.282;2023-03-12T18:44:14;6.10;1.00
3794;DHT22;1912;51.358;12.282;2023-03-12T18:46:40;6.10;1.00
3794;DHT22;1912;51.358;12.282;2023-03-12T18:49:07;6.00;1.00
3794;DHT22;1912;51.358;12.282;2023-03-12T18:51:33;6.00;1.00
3794;DHT22;1912;51.358;12.282;2023-03-12T18:54:00;6.00;1.00
3794;DHT22;1912;51.358;12.282;2023-03-12T18:56:26;6.00;1.00
3794;DHT22;1912;51.358;12.282;2023-03-12T18:58:53;6.00;1.00
3794;DHT22;1912;51.358;12.282;2023-03-12T19:01:19;6.00;1.00
3794;DHT22;1912;51.358;12.282;2023-03-12T19:03:44;6.00;1.00
3794;DHT22;1912;51.358;12.282;2023-03-12T19:06:13;6.00;1.00
3794;DHT22;1912;51.358;12.282;2023-03-12T19:08:40;6.00;1.00
3794;DHT22;1912;51.358;12.282;2023-03-12T19:11:08;6.00;1.00
3794;DHT22;1912;51.358;12.282;2023-03-12T19:13:35;6.00;1.00
3794;DHT22;1912;51.358;12.282;2023-03-12T19:16:04;6.00;1.00
3794;DHT22;1912;51.358;12.282;2023-03-12T19:18:32;6.00;1.00
3794;DHT22;1912;51.358;12.282;2023-03-12T19:20:58;6.00;1.00
3794;DHT22;1912;51.358;12.282;2023-03-12T19:23:24;6.00;1.00
3794;DHT22;1912;51.358;12.282;2023-03-12T19:25:50;6.00;1.00
3794;DHT22;1912;51.358;12.282;2023-03-12T19:28:15;6.00;1.00
3794;DHT22;1912;51.358;12.282;2023-03-12T19:30:41;6.00;1.00
3794;DHT22;1912;51.358;12.282;2023-03-12T19:33:07;6.00;1.00
3794;DHT22;1912;51.358;12.282;2023-03-12T19:35:39;6.00;1.00
3794;DHT22;1912;51.358;12.282;2023-03-12T19:38:06;6.00;1.00
3794;DHT22;1912;51.358;12.282;2023-03-12T19:40:33;6.00;1.00
3794;DHT22;1912;51.358;12.282;2023-03-12T19:42:59;6.10;1.00
3794;DHT22;1912;51.358;12.282;2023-03-12T19:45:26;6.10;1.00
3794;DHT22;1912;51.358;12.282;2023-03-12T19:47:52;6.10;1.00
3794;DHT22;1912;51.358;12.282;2023-03-12T19:50:18;6.10;1.00
3794;DHT22;1912;51.358;12.282;2023-03-12T19:52:46;6.10;1.00
3794;DHT22;1912;51.358;12.282;2023-03-12T19:55:13;6.00;1.00
3794;DHT22;1912;51.358;12.282;2023-03-12T19:57:39;6.00;1.00
3794;DHT22;1912;51.358;12.282;2023-03-12T20:00:06;6.00;1.00
3794;DHT22;1912;51.358;12.282;2023-03-12T20:02:35;6.10;1.00
3794;DHT22;1912;51.358;12.282;2023-03-12T20:05:02;6.10;1.00
3794;DHT22;1912;51.358;12.282;2023-03-12T20:07:28;6.10;1.00
3794;DHT22;1912;51.358;12.282;2023-03-12T20:09:54;6.20;1.00
3794;DHT22;1912;51.358;12.282;2023-03-12T20:12:19;6.20;1.00
3794;DHT22;1912;51.358;12.282;2023-03-12T20:14:45;6.30;1.00
3794;DHT22;1912;51.358;12.282;2023-03-12T20:17:12;6.30;1.00
3794;DHT22;1912;51.358;12.282;2023-03-12T20:19:38;6.30;1.00
3794;DHT22;1912;51.358;12.282;2023-03-12T20:22:04;6.30;1.00
3794;DHT22;1912;51.358;12.282;2023-03-12T20:24:30;6.40;1.00
3794;DHT22;1912;51.358;12.282;2023-03-12T20:26:56;6.40;1.00
3794;DHT22;1912;51.358;12.282;2023-03-12T20:29:22;6.40;1.00
3794;DHT22;1912;51.358;12.282;2023-03-12T20:31:48;6.50;1.00
3794;DHT22;1912;51.358;12.282;2023-03-12T20:34:14;6.50;1.00
3794;DHT22;1912;51.358;12.282;2023-03-12T20:36:40;6.60;1.00
3794;DHT22;1912;51.358;12.282;2023-03-12T20:39:06;6.60;1.00
3794;DHT22;1912;51.358;12.282;2023-03-12T20:41:31;6.60;1.00
3794;DHT22;1912;51.358;12.282;2023-03-12T20:43:57;6.70;1.00
3794;DHT22;1912;51.358;12.282;2023-03-12T20:46:24;6.70;1.00
3794;DHT22;1912;51.358;12.282;2023-03-12T20:48:49;6.70;1.00
3794;DHT22;1912;51.358;12.282;2023-03-12T20:51:15;6.70;1.00
3794;DHT22;1912;51.358;12.282;2023-03-12T20:53:41;6.70;1.00
3794;DHT22;1912;51.358;12.282;2023-03-12T20:56:07;6.70;1.00
3794;DHT22;1912;51.358;12.282;2023-03-12T20:58:34;6.70;1.00
3794;DHT22;1912;51.358;12.282;2023-03-12T21:01:00;6.80;1.00
3794;DHT22;1912;51.358;12.282;2023-03-12T21:03:26;6.80;1.00
3794;DHT22;1912;51.358;12.282;2023-03-12T21:05:57;6.80;1.00
3794;DHT22;1912;51.358;12.282;2023-03-12T21:08:25;6.80;1.00
3794;DHT22;1912;51.358;12.282;2023-03-12T21:10:51;6.80;1.00
3794;DHT22;1912;51.358;12.282;2023-03-12T21:13:18;6.80;1.00
3794;DHT22;1912;51.358;12.282;2023-03-12T21:15:45;6.80;1.00
3794;DHT22;1912;51.358;12.282;2023-03-12T21:18:11;6.90;1.00
3794;DHT22;1912;51.358;12.282;2023-03-12T21:20:38;6.80;1.00
3794;DHT22;1912;51.358;12.282;2023-03-12T21:23:05;6.80;1.00
3794;DHT22;1912;51.358;12.282;2023-03-12T21:25:33;6.80;1.00
3794;DHT22;1912;51.358;12.282;2023-03-12T21:28:01;6.80;1.00
3794;DHT22;1912;51.358;12.282;2023-03-12T21:30:28;6.80;1.00
